Time;durP1;ratioP1;P1;durP2;ratioP2;P2;SDS_P1;SDS_P2;PMS_P1;PMS_P2;Temp;Humidity;BMP_temperature;BMP_pressure;BME280_temperature;BME280_humidity;BME280_pressure;Samples;Min_cycle;Max_cycle;Signal;HPM_P1;HPM_P2
2023/04/09 00:01:55;;;;;;;58.20;40.58;;;8.20;99.90;;;;;;5098416;27;20047;-49
2023/04/09 00:04:22;;;;;;;61.75;40.25;;;8.30;99.90;;;;;;5097173;27;20035;-52
2023/04/09 00:06:48;;;;;;;58.13;40.00;;;8.80;99.90;;;;;;5097044;27;20050;-50
2023/04/09 00:09:14;;;;;;;68.72;42.22;;;8.20;99.90;;;;;;5097059;27;20048;-51
2023/04/09 00:11:40;;;;;;;69.68;44.00;;;8.30;99.90;;;;;;5098274;27;20252;-52
2023/04/09 00:14:06;;;;;;;63.33;42.78;;;8.00;99.90;;;;;;5098340;27;20588;-52
2023/04/09 00:16:32;;;;;;;63.05;42.65;;;8.10;99.90;;;;;;5097470;27;20122;-50
2023/04/09 00:18:57;;;;;;;64.68;43.67;;;8.30;99.90;;;;;;5095934;27;20117;-49
2023/04/09 00:21:23;;;;;;;62.97;42.08;;;8.10;99.90;;;;;;5079551;27;20055;-50
2023/04/09 00:23:49;;;;;;;64.95;43.67;;;8.00;99.90;;;;;;5096137;28;20096;-51
2023/04/09 00:26:15;;;;;;;64.15;42.60;;;8.00;99.90;;;;;;5095921;27;20056;-47
2023/04/09 00:28:41;;;;;;;67.35;43.28;;;7.90;99.90;;;;;;5078085;28;20092;-52
2023/04/09 00:31:06;;;;;;;65.00;42.92;;;9.20;99.90;;;;;;5096579;27;20512;-54
2023/04/09 00:33:32;;;;;;;69.10;43.70;;;8.00;99.90;;;;;;5095143;27;20047;-51
2023/04/09 00:35:58;;;;;;;67.15;42.63;;;7.90;99.90;;;;;;5096027;27;20052;-51
2023/04/09 00:38:24;;;;;;;68.47;42.78;;;8.00;99.90;;;;;;5094765;28;20050;-50
2023/04/09 00:40:50;;;;;;;67.82;44.85;;;8.40;99.90;;;;;;5096570;27;20124;-52
2023/04/09 00:43:17;;;;;;;68.22;45.85;;;7.90;99.90;;;;;;5094890;27;20051;-52
2023/04/09 00:45:44;;;;;;;70.95;44.03;;;8.00;99.90;;;;;;5096090;27;20047;-51
2023/04/09 00:48:11;;;;;;;74.18;44.13;;;7.80;99.90;;;;;;5095913;27;20127;-47
2023/04/09 00:50:37;;;;;;;71.50;45.83;;;8.10;99.90;;;;;;5096718;27;20054;-48
2023/04/09 00:53:04;;;;;;;77.35;45.03;;;7.90;99.90;;;;;;5094126;27;20077;-49
2023/04/09 00:55:30;;;;;;;71.90;44.83;;;7.90;99.90;;;;;;5094841;27;20055;-48
2023/04/09 00:57:56;;;;;;;75.03;44.88;;;8.00;99.90;;;;;;5097062;27;20453;-46
2023/04/09 01:00:22;;;;;;;78.78;44.55;;;8.70;99.90;;;;;;5077320;27;20040;-50
2023/04/09 01:02:50;;;;;;;74.18;45.80;;;7.80;99.90;;;;;;5094601;28;20043;-50
2023/04/09 01:05:16;;;;;;;72.18;46.00;;;7.70;99.90;;;;;;5093589;27;20343;-49
2023/04/09 01:08:10;;;;;;;75.47;46.45;;;9.50;99.90;;;;;;5096098;27;20168;-50
2023/04/09 01:10:45;;;;;;;76.35;46.58;;;7.80;99.90;;;;;;5094445;27;20059;-50
2023/04/09 01:13:15;;;;;;;71.20;44.53;;;7.90;99.90;;;;;;5095255;27;20052;-46
2023/04/09 01:15:51;;;;;;;70.22;44.97;;;7.80;99.90;;;;;;5096329;27;20039;-51
2023/04/09 01:18:49;;;;;;;72.30;44.42;;;7.70;99.90;;;;;;5095763;28;20042;-51
2023/04/09 01:21:20;;;;;;;71.60;43.65;;;7.80;99.90;;;;;;5062834;28;20055;-51
2023/04/09 01:23:51;;;;;;;65.82;41.90;;;7.60;99.90;;;;;;5096099;27;20209;-50
2023/04/09 01:26:28;;;;;;;70.20;44.22;;;7.60;99.90;;;;;;5095539;27;20055;-51
2023/04/09 01:28:56;;;;;;;65.03;41.15;;;7.60;99.90;;;;;;5095101;27;20079;-50
2023/04/09 01:31:29;;;;;;;67.68;42.47;;;8.70;99.90;;;;;;5095084;27;20511;-50
2023/04/09 01:33:56;;;;;;;68.22;42.08;;;7.60;99.90;;;;;;5094833;27;20496;-48
2023/04/09 01:36:25;;;;;;;71.00;43.25;;;7.60;99.90;;;;;;5094580;27;20096;-48
2023/04/09 01:38:52;;;;;;;69.28;43.15;;;7.60;99.90;;;;;;5095175;27;20089;-51
2023/04/09 01:41:23;;;;;;;71.45;43.80;;;7.60;99.90;;;;;;5096073;27;20043;-52
2023/04/09 01:43:50;;;;;;;70.43;43.13;;;7.60;99.90;;;;;;5095884;27;20055;-51
2023/04/09 01:46:21;;;;;;;75.78;43.55;;;8.00;99.90;;;;;;5095718;27;20510;-50
2023/04/09 01:48:47;;;;;;;70.32;41.42;;;7.60;99.90;;;;;;5094318;28;20043;-50
2023/04/09 01:51:13;;;;;;;68.65;42.80;;;7.50;99.90;;;;;;5094112;28;20048;-49
2023/04/09 01:53:40;;;;;;;70.13;43.90;;;7.60;99.90;;;;;;5095074;27;20137;-48
2023/04/09 01:56:06;;;;;;;69.75;41.08;;;9.60;99.90;;;;;;5094440;27;20074;-49
2023/04/09 01:58:35;;;;;;;68.70;44.05;;;7.60;99.90;;;;;;5095721;27;20043;-50
2023/04/09 02:01:15;;;;;;;71.28;42.00;;;8.00;99.90;;;;;;5095736;27;20571;-48
2023/04/09 02:03:47;;;;;;;68.90;40.95;;;7.80;99.90;;;;;;5094168;27;20062;-51
2023/04/09 02:06:19;;;;;;;69.60;41.25;;;7.50;99.90;;;;;;5074286;27;20039;-52
2023/04/09 02:08:46;;;;;;;70.07;43.20;;;7.60;99.90;;;;;;5094257;27;20075;-51
2023/04/09 02:11:14;;;;;;;72.57;41.40;;;7.40;99.90;;;;;;5094110;27;20044;-51
2023/04/09 02:13:41;;;;;;;68.78;42.40;;;7.40;99.90;;;;;;5075671;28;20399;-51
2023/04/09 02:16:11;;;;;;;72.47;40.70;;;7.40;99.90;;;;;;5096118;27;20434;-51
2023/04/09 02:18:36;;;;;;;59.25;36.78;;;7.40;99.90;;;;;;5094623;27;20470;-50
2023/04/09 02:21:04;;;;;;;63.90;39.00;;;8.00;99.90;;;;;;5093343;27;20050;-50
2023/04/09 02:23:32;;;;;;;61.03;37.03;;;7.40;99.90;;;;;;5093362;28;20081;-48
2023/04/09 02:25:58;;;;;;;64.80;37.72;;;7.40;99.90;;;;;;5093595;27;20446;-49
2023/04/09 02:28:24;;;;;;;60.30;36.08;;;7.40;99.90;;;;;;5094288;27;20044;-49
2023/04/09 02:30:49;;;;;;;58.97;37.17;;;7.50;99.90;;;;;;5095176;27;20346;-50
2023/04/09 02:33:15;;;;;;;48.53;31.17;;;7.40;99.90;;;;;;5093726;28;20071;-51
2023/04/09 02:35:41;;;;;;;45.60;28.35;;;7.30;99.90;;;;;;5093727;27;20088;-49
2023/04/09 02:38:12;;;;;;;40.85;27.15;;;7.80;99.90;;;;;;5076412;28;20040;-50
2023/04/09 02:40:40;;;;;;;43.33;28.53;;;9.10;99.90;;;;;;5094209;28;20055;-51
2023/04/09 02:43:06;;;;;;;48.28;29.17;;;7.20;99.90;;;;;;5092986;28;20043;-51
2023/04/09 02:45:32;;;;;;;45.33;27.45;;;7.40;99.90;;;;;;5095244;27;20065;-50
2023/04/09 02:47:57;;;;;;;48.88;28.77;;;7.00;99.90;;;;;;5093591;28;20551;-49
2023/04/09 02:50:23;;;;;;;50.35;30.15;;;8.80;99.90;;;;;;5095127;27;20035;-52
2023/04/09 02:52:49;;;;;;;48.75;31.10;;;7.00;99.90;;;;;;5093196;27;20484;-51
2023/04/09 02:55:15;;;;;;;44.47;29.02;;;6.90;99.90;;;;;;5093566;28;20036;-49
2023/04/09 02:57:41;;;;;;;49.33;30.23;;;7.00;99.90;;;;;;5094650;27;20537;-49
2023/04/09 03:00:08;;;;;;;46.92;29.48;;;6.80;99.90;;;;;;5094174;28;20039;-50
2023/04/09 03:02:34;;;;;;;51.72;30.10;;;6.90;99.90;;;;;;5093787;27;20116;-50
2023/04/09 03:04:59;;;;;;;46.35;28.35;;;6.80;99.90;;;;;;5092338;28;20044;-50
2023/04/09 03:07:25;;;;;;;45.65;28.00;;;6.80;99.90;;;;;;5093772;28;20070;-51
2023/04/09 03:09:51;;;;;;;45.00;28.10;;;6.60;99.90;;;;;;5093991;28;20403;-51
2023/04/09 03:12:16;;;;;;;44.45;27.25;;;7.70;99.90;;;;;;5074809;28;20035;-51
2023/04/09 03:14:42;;;;;;;43.72;27.77;;;8.10;99.90;;;;;;5094202;28;20031;-50
2023/04/09 03:17:08;;;;;;;44.47;27.85;;;6.50;99.90;;;;;;5095871;28;20054;-51
2023/04/09 03:19:33;;;;;;;50.38;28.65;;;8.40;99.90;;;;;;5093378;28;20060;-50
2023/04/09 03:21:59;;;;;;;46.72;29.50;;;7.40;99.90;;;;;;5093222;28;20035;-52
2023/04/09 03:24:25;;;;;;;49.58;28.65;;;7.90;99.90;;;;;;5094883;28;20630;-48
2023/04/09 03:26:50;;;;;;;42.72;27.88;;;6.60;99.90;;;;;;5093889;28;20051;-50
2023/04/09 03:29:16;;;;;;;49.22;28.60;;;6.60;99.90;;;;;;5094250;28;20198;-51
2023/04/09 03:31:42;;;;;;;50.72;31.42;;;7.60;99.90;;;;;;5093515;28;20032;-50
2023/04/09 03:34:08;;;;;;;48.70;28.70;;;8.10;99.90;;;;;;5094073;28;20682;-52
2023/04/09 03:36:33;;;;;;;43.40;27.30;;;6.80;99.90;;;;;;5093684;28;20044;-51
2023/04/09 03:38:59;;;;;;;47.15;28.48;;;6.60;99.90;;;;;;5093368;28;20036;-50
2023/04/09 03:41:26;;;;;;;44.15;28.45;;;6.70;99.90;;;;;;5093120;28;20039;-50
2023/04/09 03:43:52;;;;;;;50.65;28.70;;;6.70;99.90;;;;;;5093212;28;20044;-51
2023/04/09 03:46:18;;;;;;;54.50;29.70;;;6.60;99.90;;;;;;5093334;28;20043;-51
2023/04/09 03:48:44;;;;;;;46.55;30.17;;;6.50;99.90;;;;;;5093207;28;20131;-49
2023/04/09 03:51:12;;;;;;;45.00;27.63;;;6.70;99.90;;;;;;5093530;28;20116;-49
2023/04/09 03:53:38;;;;;;;47.50;28.77;;;6.60;99.90;;;;;;5093478;28;20051;-51
2023/04/09 03:56:04;;;;;;;44.58;28.35;;;6.70;99.90;;;;;;5093899;28;20032;-50
2023/04/09 03:58:29;;;;;;;44.67;27.55;;;6.70;99.90;;;;;;5092592;28;20124;-50
2023/04/09 04:00:55;;;;;;;48.28;30.83;;;6.60;99.90;;;;;;5092540;28;20344;-50
2023/04/09 04:03:21;;;;;;;47.75;28.33;;;6.60;99.90;;;;;;5092399;28;20050;-50
2023/04/09 04:05:47;;;;;;;49.33;30.55;;;7.40;99.90;;;;;;5092142;28;20104;-47
2023/04/09 04:08:12;;;;;;;45.45;28.48;;;6.70;99.90;;;;;;5093427;28;20075;-50
2023/04/09 04:10:38;;;;;;;49.38;28.80;;;6.70;99.90;;;;;;5073696;28;20054;-52
2023/04/09 04:13:07;;;;;;;45.00;28.65;;;7.10;99.90;;;;;;5095826;27;20040;-49
2023/04/09 04:15:33;;;;;;;46.97;29.70;;;6.70;99.90;;;;;;5097586;27;20035;-48
2023/04/09 04:17:59;;;;;;;50.65;30.67;;;6.80;99.90;;;;;;5098019;27;20121;-48
2023/04/09 04:20:25;;;;;;;44.65;28.73;;;5.60;99.90;;;;;;5096140;27;20074;-52
2023/04/09 04:22:51;;;;;;;43.72;28.10;;;6.90;99.90;;;;;;5097089;27;20069;-51
2023/04/09 04:25:16;;;;;;;46.08;29.08;;;7.40;99.90;;;;;;5097892;27;20043;-46
2023/04/09 04:27:42;;;;;;;46.03;29.17;;;6.80;99.90;;;;;;5096338;27;20146;-47
2023/04/09 04:30:08;;;;;;;51.35;29.52;;;6.80;99.90;;;;;;5097152;27;20040;-49
2023/04/09 04:32:34;;;;;;;47.25;29.55;;;6.80;99.90;;;;;;5097984;27;20048;-50
2023/04/09 04:35:00;;;;;;;46.45;30.42;;;7.00;99.90;;;;;;5077686;27;20660;-50
2023/04/09 04:37:25;;;;;;;50.53;30.05;;;7.10;99.90;;;;;;5095738;28;20046;-49
2023/04/09 04:39:51;;;;;;;47.88;31.20;;;7.50;99.90;;;;;;5096400;27;20578;-50
2023/04/09 04:42:17;;;;;;;45.67;28.98;;;7.00;99.90;;;;;;5097328;27;20119;-50
2023/04/09 04:44:43;;;;;;;47.85;30.25;;;5.60;99.90;;;;;;5078225;27;20104;-50
2023/04/09 04:47:09;;;;;;;51.78;31.52;;;7.00;99.90;;;;;;5097713;27;20039;-48
2023/04/09 04:49:35;;;;;;;44.58;29.02;;;9.10;99.90;;;;;;5095709;27;20043;-49
2023/04/09 04:52:00;;;;;;;48.58;30.02;;;8.70;99.90;;;;;;5096278;27;20609;-50
2023/04/09 04:54:26;;;;;;;46.22;29.73;;;6.90;99.90;;;;;;5096717;27;20082;-48
2023/04/09 04:56:52;;;;;;;46.83;30.08;;;7.80;99.90;;;;;;5095832;27;20043;-49
2023/04/09 04:59:18;;;;;;;48.95;30.35;;;6.80;99.90;;;;;;5095715;27;21279;-50
2023/04/09 05:01:44;;;;;;;46.70;29.15;;;7.00;99.90;;;;;;5096624;27;20066;-50
2023/04/09 05:04:10;;;;;;;51.33;29.65;;;8.70;99.90;;;;;;5094679;27;20130;-49
2023/04/09 05:06:35;;;;;;;52.50;31.17;;;7.40;99.90;;;;;;5095522;27;20131;-46
2023/04/09 05:09:01;;;;;;;49.10;30.85;;;7.00;99.90;;;;;;5095469;27;20044;-49
2023/04/09 05:11:27;;;;;;;47.67;30.25;;;6.80;99.90;;;;;;5096084;27;20043;-49
2023/04/09 05:13:53;;;;;;;51.85;30.05;;;6.90;99.90;;;;;;5095162;27;20074;-51
2023/04/09 05:16:19;;;;;;;45.53;30.08;;;7.00;99.90;;;;;;5096271;27;20066;-48
2023/04/09 05:18:46;;;;;;;47.42;30.15;;;7.00;99.90;;;;;;5094464;27;20497;-47
2023/04/09 05:21:11;;;;;;;49.00;32.10;;;8.20;99.90;;;;;;5095788;27;20144;-46
2023/04/09 05:23:37;;;;;;;46.50;28.83;;;6.90;99.90;;;;;;5093541;27;20607;-49
2023/04/09 05:26:03;;;;;;;46.40;29.13;;;6.90;99.90;;;;;;5093722;27;20088;-51
2023/04/09 05:28:29;;;;;;;44.67;28.65;;;7.00;99.90;;;;;;5094486;27;20118;-50
2023/04/09 05:30:55;;;;;;;39.53;25.27;;;7.20;99.90;;;;;;5076361;28;20111;-49
2023/04/09 05:33:21;;;;;;;36.42;24.05;;;8.80;99.90;;;;;;5093088;27;20039;-50
2023/04/09 05:35:46;;;;;;;33.90;23.42;;;6.90;99.90;;;;;;5094366;27;20495;-46
2023/04/09 05:38:12;;;;;;;36.92;24.13;;;7.00;99.90;;;;;;5095375;27;20114;-50
2023/04/09 05:40:39;;;;;;;36.95;24.52;;;7.90;99.90;;;;;;5095961;27;20518;-49
2023/04/09 05:43:05;;;;;;;39.13;26.13;;;7.10;99.90;;;;;;5094550;27;20248;-49
2023/04/09 05:45:30;;;;;;;35.85;25.20;;;6.90;99.90;;;;;;5095298;27;21565;-49
2023/04/09 05:47:56;;;;;;;41.58;25.90;;;8.30;99.90;;;;;;5096060;27;20125;-45
2023/04/09 05:50:22;;;;;;;40.90;25.58;;;8.00;99.90;;;;;;5094093;28;20242;-49
2023/04/09 05:52:48;;;;;;;40.92;25.10;;;7.10;99.90;;;;;;5094246;27;20042;-50
2023/04/09 05:55:14;;;;;;;36.28;23.80;;;7.20;99.90;;;;;;5094615;27;20048;-52
2023/04/09 05:57:40;;;;;;;31.33;22.10;;;7.20;99.90;;;;;;5096176;27;20578;-49
2023/04/09 06:00:07;;;;;;;31.58;22.60;;;7.20;99.90;;;;;;5094826;27;20071;-50
2023/04/09 06:02:32;;;;;;;35.38;22.77;;;7.30;99.90;;;;;;5075630;28;20047;-49
2023/04/09 06:04:58;;;;;;;33.42;23.70;;;7.50;99.90;;;;;;5094583;28;20093;-48
2023/04/09 06:07:24;;;;;;;31.88;22.50;;;7.30;99.90;;;;;;5094568;27;20602;-50
2023/04/09 06:09:50;;;;;;;29.77;22.00;;;7.30;99.90;;;;;;5094090;27;20039;-49
2023/04/09 06:12:16;;;;;;;33.28;23.00;;;7.70;99.90;;;;;;5093423;27;20054;-51
2023/04/09 06:14:41;;;;;;;33.58;23.77;;;7.40;99.90;;;;;;5094051;27;20032;-49
2023/04/09 06:17:07;;;;;;;33.33;22.65;;;8.80;99.90;;;;;;5095241;27;20043;-50
2023/04/09 06:19:33;;;;;;;32.58;23.13;;;7.70;99.90;;;;;;5093474;27;20158;-49
2023/04/09 06:21:59;;;;;;;32.70;22.73;;;7.40;99.90;;;;;;5074513;27;20244;-49
2023/04/09 06:24:24;;;;;;;32.88;23.13;;;7.20;99.90;;;;;;5093545;27;20043;-51
2023/04/09 06:26:50;;;;;;;32.42;22.42;;;7.30;99.90;;;;;;5076059;28;20519;-50
2023/04/09 06:29:16;;;;;;;31.92;22.95;;;7.40;99.90;;;;;;5093702;27;20388;-49
2023/04/09 06:31:42;;;;;;;39.15;24.85;;;7.30;99.90;;;;;;5093045;27;21392;-50
2023/04/09 06:34:08;;;;;;;32.70;22.80;;;7.50;99.90;;;;;;5092610;27;20438;-49
2023/04/09 06:36:36;;;;;;;34.70;22.67;;;7.40;99.90;;;;;;5092714;27;20051;-52
2023/04/09 06:39:02;;;;;;;34.30;22.17;;;7.40;99.90;;;;;;5093903;28;20104;-49
2023/04/09 06:41:28;;;;;;;29.20;21.80;;;7.30;99.90;;;;;;5092843;27;20459;-52
2023/04/09 06:43:53;;;;;;;32.33;22.17;;;7.50;99.90;;;;;;5091947;28;20039;-49
2023/04/09 06:46:20;;;;;;;32.30;23.17;;;7.50;99.90;;;;;;5093420;27;20082;-50
2023/04/09 06:48:46;;;;;;;29.95;22.13;;;7.40;99.90;;;;;;5093797;28;20055;-49
2023/04/09 06:51:12;;;;;;;32.65;22.80;;;7.60;99.90;;;;;;5092403;27;20406;-49
2023/04/09 06:53:38;;;;;;;32.05;18.85;;;7.40;99.90;;;;;;5093576;27;21055;-51
2023/04/09 06:56:04;;;;;;;30.40;21.73;;;7.70;99.90;;;;;;5093713;28;20050;-47
2023/04/09 06:58:30;;;;;;;33.15;21.83;;;7.70;99.90;;;;;;5093877;28;20241;-49
2023/04/09 07:00:56;;;;;;;34.13;23.00;;;7.60;99.90;;;;;;5093318;28;20050;-51
2023/04/09 07:03:22;;;;;;;33.95;23.02;;;7.60;99.90;;;;;;5092745;28;20040;-49
2023/04/09 07:05:48;;;;;;;33.10;23.45;;;8.80;99.90;;;;;;5093252;27;20996;-49
2023/04/09 07:08:14;;;;;;;29.88;21.13;;;7.50;99.90;;;;;;5093538;28;20047;-51
2023/04/09 07:10:40;;;;;;;33.58;22.83;;;8.90;99.90;;;;;;5092341;27;20063;-48
2023/04/09 07:13:06;;;;;;;31.58;21.58;;;9.70;99.90;;;;;;5092987;28;20047;-50
2023/04/09 07:15:31;;;;;;;31.92;22.60;;;8.90;99.90;;;;;;5092280;28;20036;-51
2023/04/09 07:17:58;;;;;;;30.63;22.35;;;7.70;99.90;;;;;;5094374;28;20047;-51
2023/04/09 07:20:24;;;;;;;32.13;22.63;;;8.50;99.90;;;;;;5093781;28;20048;-50
2023/04/09 07:22:50;;;;;;;31.30;22.45;;;7.80;99.90;;;;;;5093136;28;20105;-50
2023/04/09 07:25:16;;;;;;;33.05;22.45;;;7.70;99.90;;;;;;5093188;28;20512;-51
2023/04/09 07:27:42;;;;;;;32.47;22.40;;;8.00;99.90;;;;;;5093099;28;20426;-51
2023/04/09 07:30:09;;;;;;;32.30;21.65;;;8.20;99.90;;;;;;5092331;28;20048;-51
2023/04/09 07:32:35;;;;;;;32.47;22.75;;;7.70;99.90;;;;;;5093171;28;20051;-51
2023/04/09 07:35:03;;;;;;;35.67;22.73;;;8.10;99.90;;;;;;5091837;28;20426;-51
2023/04/09 07:37:29;;;;;;;33.05;22.58;;;7.80;99.90;;;;;;5091130;28;20517;-49
2023/04/09 07:39:55;;;;;;;33.63;22.58;;;7.80;99.90;;;;;;5093144;28;20094;-50
2023/04/09 07:42:21;;;;;;;33.20;23.08;;;7.90;99.90;;;;;;5092476;28;20119;-49
2023/04/09 07:44:47;;;;;;;31.48;22.55;;;7.90;99.90;;;;;;5091962;28;20146;-47
2023/04/09 07:47:13;;;;;;;33.65;22.45;;;7.70;99.90;;;;;;5096846;27;20089;-51
2023/04/09 07:49:39;;;;;;;33.75;23.88;;;9.00;99.90;;;;;;5096588;27;20524;-51
2023/04/09 07:52:05;;;;;;;32.63;23.50;;;8.00;99.90;;;;;;5097000;27;20051;-50
2023/04/09 07:54:31;;;;;;;30.85;22.25;;;9.70;99.90;;;;;;5096624;27;20047;-50
2023/04/09 07:56:58;;;;;;;34.05;23.38;;;7.90;99.90;;;;;;5097750;28;20542;-50
2023/04/09 07:59:24;;;;;;;31.83;21.95;;;8.00;99.90;;;;;;5096808;27;20111;-49
2023/04/09 08:01:49;;;;;;;32.58;22.73;;;7.90;99.90;;;;;;5095708;27;20071;-50
2023/04/09 08:04:15;;;;;;;32.92;22.42;;;8.00;99.90;;;;;;5095950;27;20096;-49
2023/04/09 08:06:41;;;;;;;32.65;22.00;;;9.70;99.90;;;;;;5096555;27;20122;-50
2023/04/09 08:09:07;;;;;;;40.25;24.35;;;9.40;99.90;;;;;;5096320;27;20035;-48
2023/04/09 08:11:33;;;;;;;33.80;23.50;;;8.20;99.90;;;;;;5096394;27;20043;-48
2023/04/09 08:14:03;;;;;;;35.63;23.42;;;8.30;99.90;;;;;;5096079;27;20110;-50
2023/04/09 08:16:29;;;;;;;34.47;23.85;;;10.40;99.90;;;;;;5097506;27;20040;-51
2023/04/09 08:18:55;;;;;;;37.63;24.40;;;8.50;99.90;;;;;;5097326;27;20043;-50
2023/04/09 08:21:22;;;;;;;37.33;24.90;;;8.50;99.90;;;;;;5097914;27;20050;-50
2023/04/09 08:23:48;;;;;;;34.90;23.35;;;8.40;99.90;;;;;;5096509;27;20044;-50
2023/04/09 08:26:14;;;;;;;35.55;24.30;;;8.60;99.90;;;;;;5078785;27;20042;-51
2023/04/09 08:28:40;;;;;;;37.88;25.25;;;8.50;99.90;;;;;;5097451;28;20160;-48
2023/04/09 08:31:08;;;;;;;35.70;23.73;;;8.60;99.90;;;;;;5096775;27;20039;-50
2023/04/09 08:33:34;;;;;;;34.78;24.92;;;8.40;99.90;;;;;;5077773;27;20279;-50
2023/04/09 08:36:00;;;;;;;36.63;23.58;;;8.60;99.90;;;;;;5096082;27;20124;-49
2023/04/09 08:38:26;;;;;;;36.40;25.15;;;8.60;99.90;;;;;;5097114;27;20040;-47
2023/04/09 08:40:51;;;;;;;39.33;25.33;;;8.60;99.90;;;;;;5095620;27;20911;-49
2023/04/09 08:43:21;;;;;;;37.00;25.85;;;8.70;99.90;;;;;;5095182;27;20500;-50
2023/04/09 08:45:47;;;;;;;38.28;26.23;;;8.70;99.90;;;;;;5096215;27;20035;-49
2023/04/09 08:48:14;;;;;;;39.00;24.27;;;8.70;99.90;;;;;;5095594;27;20120;-50
2023/04/09 08:50:40;;;;;;;40.95;27.23;;;8.90;99.90;;;;;;5061732;28;20048;-47
2023/04/09 08:53:08;;;;;;;40.65;27.48;;;9.00;99.90;;;;;;5096160;27;20104;-48
2023/04/09 08:55:34;;;;;;;39.03;26.88;;;8.90;99.90;;;;;;5094425;27;20418;-50
2023/04/09 08:58:04;;;;;;;41.15;27.80;;;8.90;99.90;;;;;;5094987;28;20040;-50
2023/04/09 09:00:30;;;;;;;39.75;26.02;;;9.10;99.90;;;;;;5094244;27;20631;-51
2023/04/09 09:03:07;;;;;;;39.47;26.25;;;9.20;99.90;;;;;;5096644;27;20376;-52
2023/04/09 09:05:38;;;;;;;40.35;28.13;;;9.00;99.90;;;;;;5094540;27;20048;-50
2023/04/09 09:08:05;;;;;;;40.83;27.55;;;9.10;99.90;;;;;;5095822;27;20050;-51
2023/04/09 09:10:38;;;;;;;37.03;26.02;;;10.90;99.90;;;;;;5095995;27;20077;-49
2023/04/09 09:13:24;;;;;;;40.85;26.45;;;9.20;99.90;;;;;;5095252;27;20389;-48
2023/04/09 09:15:53;;;;;;;40.97;27.23;;;9.20;99.90;;;;;;5096660;27;20043;-51
2023/04/09 09:18:20;;;;;;;43.33;29.50;;;9.40;99.90;;;;;;5096341;27;20036;-49
2023/04/09 09:20:46;;;;;;;37.92;25.38;;;9.10;99.90;;;;;;5095424;27;20035;-50
2023/04/09 09:23:12;;;;;;;41.88;28.10;;;9.50;99.90;;;;;;5094900;28;20638;-51
2023/04/09 09:25:40;;;;;;;39.20;27.30;;;9.30;99.90;;;;;;5095962;27;20166;-52
2023/04/09 09:28:10;;;;;;;41.80;27.17;;;9.50;99.90;;;;;;5096188;27;20108;-50
2023/04/09 09:30:38;;;;;;;39.78;27.30;;;9.50;99.90;;;;;;5096398;27;20047;-51
2023/04/09 09:33:09;;;;;;;37.65;26.80;;;9.40;99.90;;;;;;5094981;27;20032;-50
2023/04/09 09:35:52;;;;;;;37.92;26.75;;;9.60;99.90;;;;;;5097020;27;20048;-52
2023/04/09 09:38:19;;;;;;;38.40;26.98;;;9.70;99.90;;;;;;5095480;27;20050;-50
2023/04/09 09:40:45;;;;;;;38.10;26.73;;;9.70;99.90;;;;;;5077629;28;20113;-49
2023/04/09 09:43:12;;;;;;;43.30;28.70;;;9.70;99.90;;;;;;5094937;27;20042;-50
2023/04/09 09:45:39;;;;;;;42.53;27.17;;;9.90;99.90;;;;;;5078132;28;20047;-49
2023/04/09 09:48:05;;;;;;;38.00;26.98;;;9.90;99.90;;;;;;5078412;28;20047;-48
2023/04/09 09:50:34;;;;;;;37.20;25.25;;;10.20;99.90;;;;;;5095428;27;20062;-51
2023/04/09 09:53:07;;;;;;;35.00;25.92;;;9.90;99.90;;;;;;5094837;27;20160;-49
2023/04/09 09:55:37;;;;;;;43.28;28.52;;;9.90;99.90;;;;;;5094912;28;20047;-51
2023/04/09 09:58:14;;;;;;;39.80;26.73;;;9.90;99.90;;;;;;5095135;27;20055;-47
2023/04/09 10:00:40;;;;;;;37.45;26.08;;;10.10;99.90;;;;;;5095448;27;20122;-50
2023/04/09 10:03:13;;;;;;;40.67;27.30;;;10.20;99.90;;;;;;5094601;27;20062;-49
2023/04/09 10:05:40;;;;;;;39.08;26.35;;;10.40;99.90;;;;;;5093770;27;20032;-50
2023/04/09 10:08:06;;;;;;;36.42;25.95;;;10.50;99.90;;;;;;5094672;27;20042;-52
2023/04/09 10:10:33;;;;;;;40.50;26.77;;;10.90;99.90;;;;;;5093818;27;20429;-52
2023/04/09 10:12:59;;;;;;;36.70;26.83;;;10.60;99.90;;;;;;5094438;27;20056;-51
2023/04/09 10:15:27;;;;;;;38.88;25.98;;;10.70;99.90;;;;;;5093341;27;20492;-51
2023/04/09 10:17:53;;;;;;;36.35;25.20;;;10.90;99.90;;;;;;5094802;27;20065;-51
2023/04/09 10:20:27;;;;;;;37.83;25.55;;;10.80;99.90;;;;;;5092548;28;20116;-51
2023/04/09 10:22:54;;;;;;;34.75;24.85;;;11.10;99.90;;;;;;5092525;27;20131;-49
2023/04/09 10:25:20;;;;;;;35.95;25.05;;;11.00;99.90;;;;;;5092625;27;20043;-51
2023/04/09 10:27:58;;;;;;;34.05;24.52;;;13.10;99.90;;;;;;5093896;27;20562;-52
2023/04/09 10:30:35;;;;;;;35.22;24.55;;;11.50;99.90;;;;;;5091629;28;20054;-49
2023/04/09 10:33:16;;;;;;;32.83;24.23;;;11.80;99.90;;;;;;5090796;27;20130;-51
2023/04/09 10:35:46;;;;;;;32.03;23.38;;;11.90;99.90;;;;;;5091867;27;22268;-51
2023/04/09 10:38:13;;;;;;;31.23;23.13;;;12.10;99.90;;;;;;5091915;28;20036;-49
2023/04/09 10:40:48;;;;;;;37.65;25.92;;;12.30;99.90;;;;;;5093637;27;20071;-51
2023/04/09 10:43:18;;;;;;;34.25;24.90;;;12.60;99.90;;;;;;5093441;27;20062;-52
2023/04/09 10:45:47;;;;;;;33.83;24.75;;;12.70;99.90;;;;;;5093572;27;20055;-53
2023/04/09 10:48:13;;;;;;;43.10;24.52;;;12.90;99.90;;;;;;5092449;27;20051;-50
2023/04/09 10:50:43;;;;;;;33.35;23.73;;;13.20;99.90;;;;;;5093033;27;20113;-50
2023/04/09 10:53:22;;;;;;;34.78;24.83;;;13.60;99.90;;;;;;5091716;28;20052;-52
2023/04/09 10:55:49;;;;;;;33.63;23.67;;;14.00;99.90;;;;;;5091259;28;20047;-50
2023/04/09 10:58:15;;;;;;;29.73;23.05;;;14.20;99.90;;;;;;5092095;28;20180;-52
2023/04/09 11:00:49;;;;;;;28.45;22.67;;;14.20;99.90;;;;;;5092595;27;20051;-52
2023/04/09 11:03:31;;;;;;;31.25;22.83;;;14.30;99.90;;;;;;5090573;27;20051;-51
2023/04/09 11:05:57;;;;;;;30.73;22.05;;;14.40;99.90;;;;;;5092906;27;20238;-53
2023/04/09 11:08:26;;;;;;;31.00;23.33;;;14.50;99.90;;;;;;5093463;28;20142;-51
2023/04/09 11:10:57;;;;;;;27.25;20.15;;;14.40;99.90;;;;;;5092204;28;20166;-48
2023/04/09 11:13:23;;;;;;;27.50;21.23;;;14.70;99.90;;;;;;5075186;28;20040;-48
2023/04/09 11:15:49;;;;;;;30.65;21.92;;;14.50;99.90;;;;;;5093561;28;20038;-51
2023/04/09 11:18:26;;;;;;;28.00;22.20;;;14.40;99.90;;;;;;5093527;28;20031;-46
2023/04/09 11:20:59;;;;;;;30.00;21.65;;;14.40;99.90;;;;;;5093309;28;20527;-46
2023/04/09 11:23:26;;;;;;;29.73;21.85;;;14.90;99.90;;;;;;5096206;27;20043;-51
2023/04/09 11:25:53;;;;;;;29.35;22.02;;;14.60;99.90;;;;;;5078629;28;20474;-50
2023/04/09 11:28:19;;;;;;;30.23;21.98;;;14.50;99.90;;;;;;5096979;27;20032;-47
2023/04/09 11:30:45;;;;;;;26.08;21.23;;;14.60;99.90;;;;;;5077998;28;20405;-48
2023/04/09 11:33:12;;;;;;;27.10;21.42;;;14.80;99.90;;;;;;5096007;27;20054;-48
2023/04/09 11:35:38;;;;;;;28.33;21.52;;;15.10;99.90;;;;;;5096005;27;20081;-52
2023/04/09 11:38:10;;;;;;;28.60;20.52;;;15.10;99.90;;;;;;5096889;27;20617;-48
2023/04/09 11:40:44;;;;;;;25.73;19.63;;;15.20;99.90;;;;;;5097686;27;20051;-50
2023/04/09 11:43:10;;;;;;;25.08;19.27;;;15.10;99.90;;;;;;5095758;27;22600;-51
2023/04/09 11:45:37;;;;;;;25.52;20.08;;;15.20;99.90;;;;;;5078168;27;20059;-49
2023/04/09 11:48:03;;;;;;;24.67;18.80;;;14.50;99.90;;;;;;5077651;28;20111;-48
2023/04/09 11:50:29;;;;;;;24.38;18.73;;;14.60;99.90;;;;;;5095638;27;20282;-48
2023/04/09 11:52:55;;;;;;;23.70;19.42;;;15.80;99.90;;;;;;5095650;28;20097;-49
2023/04/09 11:55:26;;;;;;;26.67;18.23;;;14.80;99.90;;;;;;5095919;27;20039;-50
2023/04/09 11:57:56;;;;;;;25.08;19.05;;;15.20;99.90;;;;;;5094290;27;20085;-50
2023/04/09 12:00:23;;;;;;;23.65;18.40;;;15.20;99.90;;;;;;5095416;27;20051;-50
2023/04/09 12:02:50;;;;;;;22.58;18.45;;;15.10;99.90;;;;;;5095200;27;20052;-50
2023/04/09 12:05:29;;;;;;;25.13;19.30;;;15.30;99.90;;;;;;5093352;27;20073;-47
2023/04/09 12:08:00;;;;;;;27.02;18.83;;;15.40;99.90;;;;;;5096239;27;20035;-52
2023/04/09 12:10:33;;;;;;;24.92;19.55;;;15.60;99.90;;;;;;5095960;27;20062;-51
2023/04/09 12:13:05;;;;;;;25.30;18.67;;;15.40;99.90;;;;;;5096652;27;20118;-52
2023/04/09 12:15:35;;;;;;;24.02;18.60;;;15.40;99.90;;;;;;5096089;27;20048;-47
2023/04/09 12:18:02;;;;;;;23.55;18.20;;;15.10;99.90;;;;;;5095388;27;20039;-50
2023/04/09 12:20:45;;;;;;;24.83;18.52;;;14.90;99.90;;;;;;5095641;27;20051;-51
2023/04/09 12:23:12;;;;;;;105.22;84.82;;;14.50;99.90;;;;;;5095439;27;20086;-52
2023/04/09 12:25:40;;;;;;;650.35;481.50;;;14.70;99.90;;;;;;5095610;27;20078;-49
2023/04/09 12:28:07;;;;;;;94.15;85.22;;;14.60;99.90;;;;;;5094264;27;20066;-48
2023/04/09 12:30:34;;;;;;;37.30;31.25;;;14.70;99.90;;;;;;5095414;27;20136;-51
2023/04/09 12:33:00;;;;;;;65.57;58.85;;;15.00;99.90;;;;;;5095594;27;20046;-50
2023/04/09 12:35:27;;;;;;;21.38;17.17;;;15.20;99.90;;;;;;5095858;27;20300;-49
2023/04/09 12:37:52;;;;;;;24.30;18.90;;;15.30;99.90;;;;;;5094281;27;20042;-49